Main page
METAR-TAF:

METAR-TAF

Airports :

Victoria Falls Airport

Victoria Falls, Zimbabwe

latitude: 18-06S, longitude: 025-51E, elevation: 1061 m

Current weather observation

The report was made 9 hours and 28 minutes ago, at 16:00 UTC
Wind 9 kt from the East
Temperature 23°C
Humidity 69%
Pressure 1020 hPa
Visibility 10 km or more
Few clouds at a height of 3000 ft, Cumulonimbus.
Broken clouds at a height of 9000 ft

METAR: FVFA 181600Z 08009KT 9999 FEW030CB BKN090 23/17 Q1020 NOSIG

Time: 03:28 (01:28 UTC)


TAF: missing

Weather observations and forecasts of more than 4000 airports (METAR and TAF reports).

The available stations are represented by yellow and red dots on the map.

Hover mouse over dot to see the name of the station.

Then click to see weather observations and forecasts.

To change the map : click on the green buttons with a black cross to zoom in, on the green button with a dash to zoom out, or on the green arrows for adjacent maps.


METAR-TAF: